Taylors, SC (29687)

10:10 AM EST on November 23, 2014 (GMT -0500)
Edward's Forest | Change Station
CLOSE
Current Station
Personal Weather Station
Location: Taylors, SC
Elevation: 1000 ft
Nearby Weather Stations

Elev 1000 ft 34.93 °N, 82.33 °W | Updated 14 seconds ago

Rain
Rain
41.4 °F
Feels Like 41 °F
N
1.0
Wind Variable Wind from ENE
Gusts 8.0 mph

Today
High -- | Low -- °F
--% Chance of Precip.
Yesterday
High -- | Low -- °F
Precip. -- in
7:11 AM 5:19 PM
New Moon, 1% visible
Pressure 30.17 in
Visibility 4.0 miles
Clouds Mostly Cloudy 800 ft
Overcast 1200 ft
Windchill 41 °F
Dew Point 40 °F
Humidity 94%
Rainfall 0.15 in
Snow Depth Not available.
UV 1 out of 12
Pollen .30 out of 12
Air Quality Not available.
Flu Activity Not available.
METAR KGMU 231453Z 04012KT 4SM RA BR BKN008 OVC012 06/03 A3016 RMK AO2 RAB1357 CIG 007V010 SLP216 P0004 60004 T00560033 55004

More Conditions Fewer Conditions

Pressure 30.17 in
Visibility 4.0 miles
Clouds Mostly Cloudy 800 ft
Overcast 1200 ft
Windchill 41 °F
Dew Point 40 °F
Humidity 94%
Rainfall 0.15 in
Snow Depth Not available.
UV 1 out of 12
Pollen .30 out of 12
Air Quality Not available.
Flu Activity Not available.
METAR KGMU 231453Z 04012KT 4SM RA BR BKN008 OVC012 06/03 A3016 RMK AO2 RAB1357 CIG 007V010 SLP216 P0004 60004 T00560033 55004

More Conditions Fewer Conditions

10-Day Weather Forecast

Almanac

Astronomy

Nov. 23, 2014 Rise Set
Actual Time
Civil Twilight
Nautical Twilight
Astronomical Twilight
Moon
Length of Visible Light
Length of Day
Tomorrow will be .
, % of the Moon is Illuminated

Today's Extremes

State Highs State Lows

Community

WunderPhotos

Upload Photos

1,773,085 photos uploaded!

WunderBlogs® & News

Nearby

Air Quality

  Air Quality AQ Index Pollutant
Not available.

Snow Depth

Station Depth Elevation

Earthquake Activity

City Distance Mag. Time & Date
Minimum magnitude displayed is 2.5.

Coastal Water Temperatures

Place Temperature

Nearby Weather Stations